sensor_id;sensor_type;location;lat;lon;timestamp;P1;durP1;ratioP1;P2;durP2;ratioP2
67248;SDS011;63247;54.300;18.592;2023-10-08T00:01:07;3.97;;;0.60;;
67248;SDS011;63247;54.300;18.592;2023-10-08T00:03:36;3.20;;;0.50;;
67248;SDS011;63247;54.300;18.592;2023-10-08T00:06:03;3.42;;;0.70;;
67248;SDS011;63247;54.300;18.592;2023-10-08T00:08:32;3.20;;;0.60;;
67248;SDS011;63247;54.300;18.592;2023-10-08T00:10:58;5.50;;;0.63;;
67248;SDS011;63247;54.300;18.592;2023-10-08T00:13:30;4.90;;;0.77;;
67248;SDS011;63247;54.300;18.592;2023-10-08T00:15:56;2.53;;;0.50;;
67248;SDS011;63247;54.300;18.592;2023-10-08T00:18:22;4.17;;;0.60;;
67248;SDS011;63247;54.300;18.592;2023-10-08T00:20:49;3.15;;;0.55;;
67248;SDS011;63247;54.300;18.592;2023-10-08T00:23:41;5.90;;;0.55;;
67248;SDS011;63247;54.300;18.592;2023-10-08T00:26:17;3.08;;;0.50;;
67248;SDS011;63247;54.300;18.592;2023-10-08T00:28:45;2.53;;;0.30;;
67248;SDS011;63247;54.300;18.592;2023-10-08T00:31:13;2.25;;;0.40;;
67248;SDS011;63247;54.300;18.592;2023-10-08T00:33:42;3.80;;;0.50;;
67248;SDS011;63247;54.300;18.592;2023-10-08T00:36:09;3.75;;;0.60;;
67248;SDS011;63247;54.300;18.592;2023-10-08T00:38:45;3.90;;;0.50;;
67248;SDS011;63247;54.300;18.592;2023-10-08T00:41:14;2.37;;;0.40;;
67248;SDS011;63247;54.300;18.592;2023-10-08T00:43:40;2.83;;;0.40;;
67248;SDS011;63247;54.300;18.592;2023-10-08T00:46:07;3.28;;;0.60;;
67248;SDS011;63247;54.300;18.592;2023-10-08T00:48:47;2.80;;;0.40;;
67248;SDS011;63247;54.300;18.592;2023-10-08T00:51:19;5.10;;;0.60;;
67248;SDS011;63247;54.300;18.592;2023-10-08T00:53:46;4.18;;;0.40;;
67248;SDS011;63247;54.300;18.592;2023-10-08T00:56:17;2.15;;;0.50;;
67248;SDS011;63247;54.300;18.592;2023-10-08T00:58:44;3.65;;;0.50;;
67248;SDS011;63247;54.300;18.592;2023-10-08T01:01:17;3.65;;;0.60;;
67248;SDS011;63247;54.300;18.592;2023-10-08T01:03:45;2.43;;;0.40;;
67248;SDS011;63247;54.300;18.592;2023-10-08T01:06:11;2.10;;;0.40;;
67248;SDS011;63247;54.300;18.592;2023-10-08T01:08:37;3.63;;;0.47;;
67248;SDS011;63247;54.300;18.592;2023-10-08T01:11:20;3.22;;;0.40;;
67248;SDS011;63247;54.300;18.592;2023-10-08T01:13:56;2.17;;;0.55;;
67248;SDS011;63247;54.300;18.592;2023-10-08T01:16:24;2.75;;;0.30;;
67248;SDS011;63247;54.300;18.592;2023-10-08T01:18:52;3.00;;;0.40;;
67248;SDS011;63247;54.300;18.592;2023-10-08T01:21:19;2.30;;;0.40;;
67248;SDS011;63247;54.300;18.592;2023-10-08T01:23:59;3.10;;;0.60;;
67248;SDS011;63247;54.300;18.592;2023-10-08T01:26:27;2.78;;;0.50;;
67248;SDS011;63247;54.300;18.592;2023-10-08T01:28:55;2.20;;;0.30;;
67248;SDS011;63247;54.300;18.592;2023-10-08T01:31:20;3.40;;;0.50;;
67248;SDS011;63247;54.300;18.592;2023-10-08T01:33:46;1.87;;;0.30;;
67248;SDS011;63247;54.300;18.592;2023-10-08T01:36:21;3.53;;;0.70;;
67248;SDS011;63247;54.300;18.592;2023-10-08T01:38:48;2.75;;;0.50;;
67248;SDS011;63247;54.300;18.592;2023-10-08T01:41:14;3.23;;;0.70;;
67248;SDS011;63247;54.300;18.592;2023-10-08T01:43:54;2.58;;;0.60;;
67248;SDS011;63247;54.300;18.592;2023-10-08T01:46:19;1.87;;;0.40;;
67248;SDS011;63247;54.300;18.592;2023-10-08T01:48:47;3.97;;;0.30;;
67248;SDS011;63247;54.300;18.592;2023-10-08T01:51:15;3.25;;;0.40;;
67248;SDS011;63247;54.300;18.592;2023-10-08T01:53:50;1.98;;;0.32;;
67248;SDS011;63247;54.300;18.592;2023-10-08T01:56:19;1.70;;;0.30;;
67248;SDS011;63247;54.300;18.592;2023-10-08T01:58:44;2.30;;;0.30;;
67248;SDS011;63247;54.300;18.592;2023-10-08T02:01:11;2.17;;;0.30;;
67248;SDS011;63247;54.300;18.592;2023-10-08T02:03:38;3.57;;;0.70;;
67248;SDS011;63247;54.300;18.592;2023-10-08T02:06:03;3.85;;;0.50;;
67248;SDS011;63247;54.300;18.592;2023-10-08T02:08:33;5.47;;;0.40;;
67248;SDS011;63247;54.300;18.592;2023-10-08T02:10:59;1.73;;;0.40;;
67248;SDS011;63247;54.300;18.592;2023-10-08T02:13:24;3.80;;;0.50;;
67248;SDS011;63247;54.300;18.592;2023-10-08T02:15:50;2.53;;;0.40;;
67248;SDS011;63247;54.300;18.592;2023-10-08T02:18:19;3.47;;;0.30;;
67248;SDS011;63247;54.300;18.592;2023-10-08T02:20:45;4.57;;;0.50;;
67248;SDS011;63247;54.300;18.592;2023-10-08T02:23:10;2.40;;;0.30;;
67248;SDS011;63247;54.300;18.592;2023-10-08T02:25:38;3.83;;;0.50;;
67248;SDS011;63247;54.300;18.592;2023-10-08T02:28:07;1.83;;;0.30;;
67248;SDS011;63247;54.300;18.592;2023-10-08T02:30:40;1.80;;;0.30;;
67248;SDS011;63247;54.300;18.592;2023-10-08T02:33:06;2.73;;;0.30;;
67248;SDS011;63247;54.300;18.592;2023-10-08T02:35:41;2.75;;;0.40;;
67248;SDS011;63247;54.300;18.592;2023-10-08T02:38:08;2.47;;;0.40;;
67248;SDS011;63247;54.300;18.592;2023-10-08T02:40:49;4.07;;;0.30;;
67248;SDS011;63247;54.300;18.592;2023-10-08T02:43:15;2.92;;;0.50;;
67248;SDS011;63247;54.300;18.592;2023-10-08T02:45:42;4.50;;;0.40;;
67248;SDS011;63247;54.300;18.592;2023-10-08T02:48:12;2.33;;;0.30;;
67248;SDS011;63247;54.300;18.592;2023-10-08T02:50:38;2.78;;;0.50;;
67248;SDS011;63247;54.300;18.592;2023-10-08T02:53:07;3.33;;;0.40;;
67248;SDS011;63247;54.300;18.592;2023-10-08T02:55:39;2.80;;;0.30;;
67248;SDS011;63247;54.300;18.592;2023-10-08T02:58:11;3.38;;;0.45;;
67248;SDS011;63247;54.300;18.592;2023-10-08T03:00:44;2.33;;;0.40;;
67248;SDS011;63247;54.300;18.592;2023-10-08T03:03:12;2.25;;;0.30;;
67248;SDS011;63247;54.300;18.592;2023-10-08T03:05:41;3.03;;;0.40;;
67248;SDS011;63247;54.300;18.592;2023-10-08T03:08:11;2.30;;;0.50;;
67248;SDS011;63247;54.300;18.592;2023-10-08T03:10:37;3.65;;;0.40;;
67248;SDS011;63247;54.300;18.592;2023-10-08T03:13:03;2.83;;;0.40;;
67248;SDS011;63247;54.300;18.592;2023-10-08T03:15:29;4.37;;;0.50;;
67248;SDS011;63247;54.300;18.592;2023-10-08T03:17:56;3.10;;;0.30;;
67248;SDS011;63247;54.300;18.592;2023-10-08T03:20:34;2.00;;;0.38;;
67248;SDS011;63247;54.300;18.592;2023-10-08T03:23:07;3.83;;;0.40;;
67248;SDS011;63247;54.300;18.592;2023-10-08T03:25:51;1.98;;;0.40;;
67248;SDS011;63247;54.300;18.592;2023-10-08T03:28:41;2.67;;;0.40;;
67248;SDS011;63247;54.300;18.592;2023-10-08T03:31:06;2.95;;;0.40;;
67248;SDS011;63247;54.300;18.592;2023-10-08T03:33:40;1.97;;;0.40;;
67248;SDS011;63247;54.300;18.592;2023-10-08T03:36:06;1.92;;;0.40;;
67248;SDS011;63247;54.300;18.592;2023-10-08T03:38:52;3.10;;;0.50;;
67248;SDS011;63247;54.300;18.592;2023-10-08T03:41:21;1.73;;;0.20;;
67248;SDS011;63247;54.300;18.592;2023-10-08T03:43:54;2.80;;;0.40;;
67248;SDS011;63247;54.300;18.592;2023-10-08T03:46:33;3.45;;;0.40;;
67248;SDS011;63247;54.300;18.592;2023-10-08T03:49:07;2.47;;;0.40;;
67248;SDS011;63247;54.300;18.592;2023-10-08T03:51:39;1.75;;;0.30;;
67248;SDS011;63247;54.300;18.592;2023-10-08T03:54:08;4.60;;;0.40;;
67248;SDS011;63247;54.300;18.592;2023-10-08T03:56:33;4.68;;;0.40;;
67248;SDS011;63247;54.300;18.592;2023-10-08T03:59:02;2.78;;;0.50;;
67248;SDS011;63247;54.300;18.592;2023-10-08T04:01:58;2.85;;;0.50;;
67248;SDS011;63247;54.300;18.592;2023-10-08T04:04:38;4.23;;;0.87;;
67248;SDS011;63247;54.300;18.592;2023-10-08T04:07:23;2.25;;;0.40;;
67248;SDS011;63247;54.300;18.592;2023-10-08T04:10:09;3.33;;;0.40;;
67248;SDS011;63247;54.300;18.592;2023-10-08T04:12:35;2.10;;;0.40;;
67248;SDS011;63247;54.300;18.592;2023-10-08T04:15:07;3.60;;;0.52;;
67248;SDS011;63247;54.300;18.592;2023-10-08T04:17:35;4.35;;;0.60;;
67248;SDS011;63247;54.300;18.592;2023-10-08T04:20:09;2.60;;;0.50;;
67248;SDS011;63247;54.300;18.592;2023-10-08T04:22:55;2.57;;;0.37;;
67248;SDS011;63247;54.300;18.592;2023-10-08T04:25:24;2.17;;;0.43;;
67248;SDS011;63247;54.300;18.592;2023-10-08T04:27:51;2.33;;;0.55;;
67248;SDS011;63247;54.300;18.592;2023-10-08T04:30:17;2.42;;;0.50;;
67248;SDS011;63247;54.300;18.592;2023-10-08T04:32:42;2.13;;;0.30;;
67248;SDS011;63247;54.300;18.592;2023-10-08T04:35:08;3.87;;;0.40;;
67248;SDS011;63247;54.300;18.592;2023-10-08T04:37:39;3.88;;;0.43;;
67248;SDS011;63247;54.300;18.592;2023-10-08T04:40:06;3.13;;;0.40;;
67248;SDS011;63247;54.300;18.592;2023-10-08T04:42:40;3.30;;;0.40;;
67248;SDS011;63247;54.300;18.592;2023-10-08T04:45:09;2.00;;;0.30;;
67248;SDS011;63247;54.300;18.592;2023-10-08T04:47:39;2.53;;;0.40;;
67248;SDS011;63247;54.300;18.592;2023-10-08T04:50:07;4.60;;;0.60;;
67248;SDS011;63247;54.300;18.592;2023-10-08T04:52:43;2.28;;;0.35;;
67248;SDS011;63247;54.300;18.592;2023-10-08T04:55:20;3.95;;;0.50;;
67248;SDS011;63247;54.300;18.592;2023-10-08T04:57:53;2.00;;;0.30;;
67248;SDS011;63247;54.300;18.592;2023-10-08T05:00:19;1.88;;;0.40;;
67248;SDS011;63247;54.300;18.592;2023-10-08T05:03:04;2.80;;;0.50;;
67248;SDS011;63247;54.300;18.592;2023-10-08T05:05:38;2.33;;;0.40;;
67248;SDS011;63247;54.300;18.592;2023-10-08T05:08:21;3.17;;;0.52;;
67248;SDS011;63247;54.300;18.592;2023-10-08T05:10:58;2.47;;;0.40;;
67248;SDS011;63247;54.300;18.592;2023-10-08T05:13:40;2.53;;;0.40;;
67248;SDS011;63247;54.300;18.592;2023-10-08T05:16:20;3.03;;;0.45;;
67248;SDS011;63247;54.300;18.592;2023-10-08T05:19:02;2.80;;;0.30;;
67248;SDS011;63247;54.300;18.592;2023-10-08T05:21:59;2.60;;;0.50;;
67248;SDS011;63247;54.300;18.592;2023-10-08T05:24:43;3.08;;;0.50;;
67248;SDS011;63247;54.300;18.592;2023-10-08T05:27:35;2.35;;;0.40;;
67248;SDS011;63247;54.300;18.592;2023-10-08T05:32:53;2.37;;;0.40;;
67248;SDS011;63247;54.300;18.592;2023-10-08T05:35:28;7.55;;;0.52;;
67248;SDS011;63247;54.300;18.592;2023-10-08T05:38:09;4.97;;;0.50;;
67248;SDS011;63247;54.300;18.592;2023-10-08T05:40:44;2.10;;;0.35;;
67248;SDS011;63247;54.300;18.592;2023-10-08T05:43:19;1.83;;;0.40;;
67248;SDS011;63247;54.300;18.592;2023-10-08T05:45:59;1.67;;;0.40;;
67248;SDS011;63247;54.300;18.592;2023-10-08T05:48:44;2.70;;;0.93;;
67248;SDS011;63247;54.300;18.592;2023-10-08T05:51:16;2.03;;;0.38;;
67248;SDS011;63247;54.300;18.592;2023-10-08T05:53:59;1.73;;;0.32;;
67248;SDS011;63247;54.300;18.592;2023-10-08T05:56:28;3.58;;;0.50;;
67248;SDS011;63247;54.300;18.592;2023-10-08T05:58:53;1.83;;;0.40;;
67248;SDS011;63247;54.300;18.592;2023-10-08T06:01:39;2.40;;;0.50;;
67248;SDS011;63247;54.300;18.592;2023-10-08T06:04:06;3.30;;;0.50;;
67248;SDS011;63247;54.300;18.592;2023-10-08T06:07:06;4.70;;;0.63;;
67248;SDS011;63247;54.300;18.592;2023-10-08T06:09:42;2.33;;;0.45;;
67248;SDS011;63247;54.300;18.592;2023-10-08T06:12:15;2.92;;;0.75;;
67248;SDS011;63247;54.300;18.592;2023-10-08T06:14:54;2.40;;;0.60;;
67248;SDS011;63247;54.300;18.592;2023-10-08T06:17:32;4.30;;;0.77;;
67248;SDS011;63247;54.300;18.592;2023-10-08T06:20:17;3.33;;;0.60;;
67248;SDS011;63247;54.300;18.592;2023-10-08T06:22:49;2.92;;;0.60;;
67248;SDS011;63247;54.300;18.592;2023-10-08T06:25:15;3.20;;;0.82;;
67248;SDS011;63247;54.300;18.592;2023-10-08T06:27:48;3.03;;;0.60;;
67248;SDS011;63247;54.300;18.592;2023-10-08T06:30:15;3.70;;;1.02;;
67248;SDS011;63247;54.300;18.592;2023-10-08T06:32:44;8.13;;;3.13;;
67248;SDS011;63247;54.300;18.592;2023-10-08T06:35:10;12.43;;;4.30;;
67248;SDS011;63247;54.300;18.592;2023-10-08T06:37:45;10.67;;;3.43;;
67248;SDS011;63247;54.300;18.592;2023-10-08T06:40:14;12.88;;;3.60;;
67248;SDS011;63247;54.300;18.592;2023-10-08T06:42:59;9.93;;;2.67;;
67248;SDS011;63247;54.300;18.592;2023-10-08T06:45:28;8.30;;;2.75;;
67248;SDS011;63247;54.300;18.592;2023-10-08T06:47:56;16.63;;;4.20;;
67248;SDS011;63247;54.300;18.592;2023-10-08T06:50:22;9.23;;;2.67;;
67248;SDS011;63247;54.300;18.592;2023-10-08T06:52:47;9.90;;;3.42;;
67248;SDS011;63247;54.300;18.592;2023-10-08T06:55:14;9.13;;;4.05;;
67248;SDS011;63247;54.300;18.592;2023-10-08T06:57:42;8.17;;;2.60;;
67248;SDS011;63247;54.300;18.592;2023-10-08T07:00:08;6.47;;;1.70;;
67248;SDS011;63247;54.300;18.592;2023-10-08T07:02:37;4.53;;;1.83;;
67248;SDS011;63247;54.300;18.592;2023-10-08T07:05:04;3.38;;;1.50;;
67248;SDS011;63247;54.300;18.592;2023-10-08T07:07:34;4.07;;;1.20;;
67248;SDS011;63247;54.300;18.592;2023-10-08T07:10:05;3.85;;;0.85;;
67248;SDS011;63247;54.300;18.592;2023-10-08T07:12:35;2.90;;;0.70;;
67248;SDS011;63247;54.300;18.592;2023-10-08T07:15:01;3.40;;;0.60;;
67248;SDS011;63247;54.300;18.592;2023-10-08T07:17:29;2.13;;;0.50;;
67248;SDS011;63247;54.300;18.592;2023-10-08T07:20:05;2.60;;;0.80;;
67248;SDS011;63247;54.300;18.592;2023-10-08T07:22:38;4.25;;;0.70;;
67248;SDS011;63247;54.300;18.592;2023-10-08T07:25:04;2.07;;;0.53;;
67248;SDS011;63247;54.300;18.592;2023-10-08T07:27:33;2.47;;;0.60;;
67248;SDS011;63247;54.300;18.592;2023-10-08T07:30:05;3.03;;;0.80;;
67248;SDS011;63247;54.300;18.592;2023-10-08T07:32:35;2.88;;;0.60;;
67248;SDS011;63247;54.300;18.592;2023-10-08T07:35:03;2.67;;;0.55;;
67248;SDS011;63247;54.300;18.592;2023-10-08T07:37:50;3.20;;;0.70;;
67248;SDS011;63247;54.300;18.592;2023-10-08T07:40:18;3.10;;;0.60;;
67248;SDS011;63247;54.300;18.592;2023-10-08T07:42:45;2.33;;;0.77;;
67248;SDS011;63247;54.300;18.592;2023-10-08T07:45:16;2.60;;;0.60;;
67248;SDS011;63247;54.300;18.592;2023-10-08T07:47:42;2.08;;;0.70;;
67248;SDS011;63247;54.300;18.592;2023-10-08T07:50:09;2.88;;;0.70;;
67248;SDS011;63247;54.300;18.592;2023-10-08T07:52:37;2.47;;;0.80;;
67248;SDS011;63247;54.300;18.592;2023-10-08T07:55:03;2.30;;;0.70;;
67248;SDS011;63247;54.300;18.592;2023-10-08T07:57:32;2.13;;;0.50;;
67248;SDS011;63247;54.300;18.592;2023-10-08T07:59:58;2.80;;;0.77;;
67248;SDS011;63247;54.300;18.592;2023-10-08T08:02:43;5.20;;;1.00;;
67248;SDS011;63247;54.300;18.592;2023-10-08T08:05:08;2.53;;;0.70;;
67248;SDS011;63247;54.300;18.592;2023-10-08T08:07:34;5.10;;;0.80;;
67248;SDS011;63247;54.300;18.592;2023-10-08T08:09:59;4.78;;;0.88;;
67248;SDS011;63247;54.300;18.592;2023-10-08T08:12:25;2.80;;;0.77;;
67248;SDS011;63247;54.300;18.592;2023-10-08T08:14:53;2.60;;;0.60;;
67248;SDS011;63247;54.300;18.592;2023-10-08T08:17:19;1.92;;;0.70;;
67248;SDS011;63247;54.300;18.592;2023-10-08T08:19:48;2.83;;;0.83;;
67248;SDS011;63247;54.300;18.592;2023-10-08T08:22:15;2.45;;;0.70;;
67248;SDS011;63247;54.300;18.592;2023-10-08T08:24:52;3.58;;;0.85;;
67248;SDS011;63247;54.300;18.592;2023-10-08T08:27:20;3.03;;;0.60;;
67248;SDS011;63247;54.300;18.592;2023-10-08T08:29:52;2.53;;;0.70;;
67248;SDS011;63247;54.300;18.592;2023-10-08T08:32:24;2.57;;;0.60;;
67248;SDS011;63247;54.300;18.592;2023-10-08T08:34:49;2.17;;;0.60;;
67248;SDS011;63247;54.300;18.592;2023-10-08T08:37:18;6.07;;;0.80;;
67248;SDS011;63247;54.300;18.592;2023-10-08T08:39:44;2.85;;;0.70;;
67248;SDS011;63247;54.300;18.592;2023-10-08T08:42:10;3.10;;;0.73;;
67248;SDS011;63247;54.300;18.592;2023-10-08T08:44:37;2.50;;;0.63;;
67248;SDS011;63247;54.300;18.592;2023-10-08T08:47:11;2.97;;;0.70;;
67248;SDS011;63247;54.300;18.592;2023-10-08T08:49:42;3.03;;;0.68;;
67248;SDS011;63247;54.300;18.592;2023-10-08T08:52:09;2.33;;;0.50;;
67248;SDS011;63247;54.300;18.592;2023-10-08T08:54:34;2.35;;;0.50;;
67248;SDS011;63247;54.300;18.592;2023-10-08T08:57:02;2.47;;;0.60;;
67248;SDS011;63247;54.300;18.592;2023-10-08T08:59:38;2.65;;;0.52;;
67248;SDS011;63247;54.300;18.592;2023-10-08T09:02:15;3.10;;;0.60;;
67248;SDS011;63247;54.300;18.592;2023-10-08T09:04:42;2.20;;;0.63;;
67248;SDS011;63247;54.300;18.592;2023-10-08T09:07:08;2.37;;;0.60;;
67248;SDS011;63247;54.300;18.592;2023-10-08T09:09:34;2.23;;;0.60;;
67248;SDS011;63247;54.300;18.592;2023-10-08T09:12:03;3.92;;;0.70;;
67248;SDS011;63247;54.300;18.592;2023-10-08T09:14:30;2.30;;;0.50;;
67248;SDS011;63247;54.300;18.592;2023-10-08T09:16:59;2.80;;;0.70;;
67248;SDS011;63247;54.300;18.592;2023-10-08T09:19:25;2.10;;;0.70;;
67248;SDS011;63247;54.300;18.592;2023-10-08T09:22:10;2.45;;;0.70;;
67248;SDS011;63247;54.300;18.592;2023-10-08T09:24:40;2.75;;;0.60;;
67248;SDS011;63247;54.300;18.592;2023-10-08T09:27:07;3.30;;;0.60;;
67248;SDS011;63247;54.300;18.592;2023-10-08T09:29:36;2.50;;;0.45;;
67248;SDS011;63247;54.300;18.592;2023-10-08T09:32:05;4.23;;;0.80;;
67248;SDS011;63247;54.300;18.592;2023-10-08T09:34:31;3.10;;;0.77;;
67248;SDS011;63247;54.300;18.592;2023-10-08T09:36:58;2.72;;;0.80;;
67248;SDS011;63247;54.300;18.592;2023-10-08T09:39:27;2.28;;;0.68;;
67248;SDS011;63247;54.300;18.592;2023-10-08T09:41:55;2.35;;;0.65;;
67248;SDS011;63247;54.300;18.592;2023-10-08T09:44:22;6.37;;;0.60;;
67248;SDS011;63247;54.300;18.592;2023-10-08T09:46:52;2.63;;;0.73;;
67248;SDS011;63247;54.300;18.592;2023-10-08T09:49:24;6.22;;;0.68;;
67248;SDS011;63247;54.300;18.592;2023-10-08T09:51:57;3.53;;;0.60;;
67248;SDS011;63247;54.300;18.592;2023-10-08T09:54:30;2.38;;;0.60;;
67248;SDS011;63247;54.300;18.592;2023-10-08T09:56:58;3.77;;;0.70;;
67248;SDS011;63247;54.300;18.592;2023-10-08T09:59:24;4.63;;;0.60;;
67248;SDS011;63247;54.300;18.592;2023-10-08T10:01:52;5.43;;;0.68;;
67248;SDS011;63247;54.300;18.592;2023-10-08T10:04:24;3.08;;;0.70;;
67248;SDS011;63247;54.300;18.592;2023-10-08T10:06:50;2.37;;;0.67;;
67248;SDS011;63247;54.300;18.592;2023-10-08T10:09:22;3.58;;;0.70;;
67248;SDS011;63247;54.300;18.592;2023-10-08T10:11:49;2.43;;;0.50;;
67248;SDS011;63247;54.300;18.592;2023-10-08T10:14:17;3.10;;;0.55;;
67248;SDS011;63247;54.300;18.592;2023-10-08T10:16:43;2.60;;;0.55;;
67248;SDS011;63247;54.300;18.592;2023-10-08T10:19:19;2.75;;;0.70;;
67248;SDS011;63247;54.300;18.592;2023-10-08T10:21:45;4.03;;;0.90;;
67248;SDS011;63247;54.300;18.592;2023-10-08T10:27:11;5.55;;;0.60;;
67248;SDS011;63247;54.300;18.592;2023-10-08T10:29:37;3.70;;;0.43;;
67248;SDS011;63247;54.300;18.592;2023-10-08T10:32:02;1.90;;;0.40;;
67248;SDS011;63247;54.300;18.592;2023-10-08T10:34:30;2.30;;;0.50;;
67248;SDS011;63247;54.300;18.592;2023-10-08T10:37:01;2.70;;;0.40;;
67248;SDS011;63247;54.300;18.592;2023-10-08T10:39:34;3.30;;;0.40;;
67248;SDS011;63247;54.300;18.592;2023-10-08T10:42:05;3.13;;;0.50;;
67248;SDS011;63247;54.300;18.592;2023-10-08T10:44:32;2.25;;;0.40;;
67248;SDS011;63247;54.300;18.592;2023-10-08T10:47:01;2.28;;;0.30;;
67248;SDS011;63247;54.300;18.592;2023-10-08T10:49:46;3.65;;;0.40;;
67248;SDS011;63247;54.300;18.592;2023-10-08T10:52:19;1.13;;;0.20;;
67248;SDS011;63247;54.300;18.592;2023-10-08T10:55:19;1.88;;;0.55;;
67248;SDS011;63247;54.300;18.592;2023-10-08T10:57:54;1.60;;;0.30;;
67248;SDS011;63247;54.300;18.592;2023-10-08T11:00:22;2.83;;;0.68;;
67248;SDS011;63247;54.300;18.592;2023-10-08T11:02:58;2.38;;;0.50;;
67248;SDS011;63247;54.300;18.592;2023-10-08T11:05:44;2.37;;;0.40;;
67248;SDS011;63247;54.300;18.592;2023-10-08T11:08:16;1.80;;;0.30;;
67248;SDS011;63247;54.300;18.592;2023-10-08T11:10:48;2.90;;;0.50;;
67248;SDS011;63247;54.300;18.592;2023-10-08T11:13:16;4.13;;;0.50;;
67248;SDS011;63247;54.300;18.592;2023-10-08T11:15:46;3.50;;;0.40;;
67248;SDS011;63247;54.300;18.592;2023-10-08T11:18:24;2.83;;;0.40;;
67248;SDS011;63247;54.300;18.592;2023-10-08T11:20:53;3.25;;;0.30;;
67248;SDS011;63247;54.300;18.592;2023-10-08T11:23:42;2.90;;;0.40;;
67248;SDS011;63247;54.300;18.592;2023-10-08T11:26:11;2.60;;;0.50;;
67248;SDS011;63247;54.300;18.592;2023-10-08T11:28:40;2.30;;;0.43;;
67248;SDS011;63247;54.300;18.592;2023-10-08T11:31:12;2.27;;;0.30;;
67248;SDS011;63247;54.300;18.592;2023-10-08T11:33:45;2.95;;;0.40;;
67248;SDS011;63247;54.300;18.592;2023-10-08T11:36:23;3.70;;;0.40;;
67248;SDS011;63247;54.300;18.592;2023-10-08T11:38:57;2.20;;;0.30;;
67248;SDS011;63247;54.300;18.592;2023-10-08T11:41:33;3.53;;;0.30;;
67248;SDS011;63247;54.300;18.592;2023-10-08T11:44:17;1.97;;;0.50;;
67248;SDS011;63247;54.300;18.592;2023-10-08T11:46:48;3.95;;;0.40;;
67248;SDS011;63247;54.300;18.592;2023-10-08T11:49:16;1.77;;;0.30;;
67248;SDS011;63247;54.300;18.592;2023-10-08T11:51:43;2.00;;;0.30;;
67248;SDS011;63247;54.300;18.592;2023-10-08T11:54:10;3.60;;;0.43;;
67248;SDS011;63247;54.300;18.592;2023-10-08T11:56:36;1.57;;;0.30;;
67248;SDS011;63247;54.300;18.592;2023-10-08T11:59:03;2.53;;;0.30;;
67248;SDS011;63247;54.300;18.592;2023-10-08T12:01:34;3.15;;;0.40;;
67248;SDS011;63247;54.300;18.592;2023-10-08T12:04:07;2.00;;;0.40;;
67248;SDS011;63247;54.300;18.592;2023-10-08T12:06:37;2.72;;;0.43;;
67248;SDS011;63247;54.300;18.592;2023-10-08T12:09:05;2.20;;;0.50;;
67248;SDS011;63247;54.300;18.592;2023-10-08T12:11:37;4.30;;;0.40;;
67248;SDS011;63247;54.300;18.592;2023-10-08T12:14:03;2.83;;;0.40;;
67248;SDS011;63247;54.300;18.592;2023-10-08T12:16:28;4.17;;;0.43;;
67248;SDS011;63247;54.300;18.592;2023-10-08T12:19:00;1.67;;;0.32;;
67248;SDS011;63247;54.300;18.592;2023-10-08T12:21:26;2.72;;;0.40;;
67248;SDS011;63247;54.300;18.592;2023-10-08T12:23:58;2.88;;;0.40;;
67248;SDS011;63247;54.300;18.592;2023-10-08T12:26:24;3.17;;;0.40;;
67248;SDS011;63247;54.300;18.592;2023-10-08T12:28:50;2.90;;;0.37;;
67248;SDS011;63247;54.300;18.592;2023-10-08T12:31:20;2.95;;;0.45;;
67248;SDS011;63247;54.300;18.592;2023-10-08T12:33:49;2.55;;;0.40;;
67248;SDS011;63247;54.300;18.592;2023-10-08T12:36:22;2.75;;;0.63;;
67248;SDS011;63247;54.300;18.592;2023-10-08T12:38:48;2.63;;;0.40;;
67248;SDS011;63247;54.300;18.592;2023-10-08T12:41:22;3.65;;;0.40;;
67248;SDS011;63247;54.300;18.592;2023-10-08T12:43:50;3.60;;;0.50;;
67248;SDS011;63247;54.300;18.592;2023-10-08T12:46:17;2.88;;;0.40;;
67248;SDS011;63247;54.300;18.592;2023-10-08T12:48:48;2.30;;;0.50;;
67248;SDS011;63247;54.300;18.592;2023-10-08T12:51:17;2.33;;;0.60;;
67248;SDS011;63247;54.300;18.592;2023-10-08T12:53:43;2.60;;;0.50;;
67248;SDS011;63247;54.300;18.592;2023-10-08T12:56:16;2.63;;;0.40;;
67248;SDS011;63247;54.300;18.592;2023-10-08T12:58:42;1.83;;;0.32;;
67248;SDS011;63247;54.300;18.592;2023-10-08T13:01:16;2.03;;;0.45;;
67248;SDS011;63247;54.300;18.592;2023-10-08T13:03:45;3.17;;;0.33;;
67248;SDS011;63247;54.300;18.592;2023-10-08T13:06:18;2.40;;;0.40;;
67248;SDS011;63247;54.300;18.592;2023-10-08T13:08:50;4.60;;;0.50;;
67248;SDS011;63247;54.300;18.592;2023-10-08T13:11:19;2.13;;;0.50;;
67248;SDS011;63247;54.300;18.592;2023-10-08T13:13:51;3.05;;;0.50;;
67248;SDS011;63247;54.300;18.592;2023-10-08T13:16:23;2.30;;;0.50;;
67248;SDS011;63247;54.300;18.592;2023-10-08T13:18:50;4.65;;;0.63;;
67248;SDS011;63247;54.300;18.592;2023-10-08T13:21:16;2.88;;;0.40;;
67248;SDS011;63247;54.300;18.592;2023-10-08T13:23:44;1.70;;;0.30;;
67248;SDS011;63247;54.300;18.592;2023-10-08T13:26:09;2.10;;;0.30;;
67248;SDS011;63247;54.300;18.592;2023-10-08T13:28:42;4.80;;;0.30;;
67248;SDS011;63247;54.300;18.592;2023-10-08T13:31:09;2.22;;;0.40;;
67248;SDS011;63247;54.300;18.592;2023-10-08T13:33:41;5.90;;;0.40;;
67248;SDS011;63247;54.300;18.592;2023-10-08T13:36:09;2.72;;;0.40;;
67248;SDS011;63247;54.300;18.592;2023-10-08T13:38:38;2.95;;;0.50;;
67248;SDS011;63247;54.300;18.592;2023-10-08T13:41:06;3.13;;;0.60;;
67248;SDS011;63247;54.300;18.592;2023-10-08T13:43:40;1.60;;;0.30;;
67248;SDS011;63247;54.300;18.592;2023-10-08T13:46:06;1.95;;;0.30;;
67248;SDS011;63247;54.300;18.592;2023-10-08T13:48:38;2.22;;;0.38;;
67248;SDS011;63247;54.300;18.592;2023-10-08T13:51:05;3.67;;;0.60;;
67248;SDS011;63247;54.300;18.592;2023-10-08T13:53:38;2.80;;;0.30;;
67248;SDS011;63247;54.300;18.592;2023-10-08T13:56:05;1.80;;;0.30;;
67248;SDS011;63247;54.300;18.592;2023-10-08T13:58:31;2.95;;;0.47;;
67248;SDS011;63247;54.300;18.592;2023-10-08T14:00:59;3.60;;;0.40;;
67248;SDS011;63247;54.300;18.592;2023-10-08T14:03:26;1.80;;;0.40;;
67248;SDS011;63247;54.300;18.592;2023-10-08T14:05:59;3.35;;;0.40;;
67248;SDS011;63247;54.300;18.592;2023-10-08T14:08:31;3.08;;;0.50;;
67248;SDS011;63247;54.300;18.592;2023-10-08T14:10:57;3.28;;;0.40;;
67248;SDS011;63247;54.300;18.592;2023-10-08T14:13:29;2.20;;;0.40;;
67248;SDS011;63247;54.300;18.592;2023-10-08T14:16:00;3.20;;;0.30;;
67248;SDS011;63247;54.300;18.592;2023-10-08T14:18:30;2.63;;;0.30;;
67248;SDS011;63247;54.300;18.592;2023-10-08T14:21:05;2.40;;;0.30;;
67248;SDS011;63247;54.300;18.592;2023-10-08T14:23:36;2.55;;;0.40;;
67248;SDS011;63247;54.300;18.592;2023-10-08T14:26:06;2.70;;;0.60;;
67248;SDS011;63247;54.300;18.592;2023-10-08T14:28:33;2.40;;;0.40;;
67248;SDS011;63247;54.300;18.592;2023-10-08T14:31:08;4.32;;;0.40;;
67248;SDS011;63247;54.300;18.592;2023-10-08T14:33:40;2.83;;;0.65;;
67248;SDS011;63247;54.300;18.592;2023-10-08T14:36:10;3.35;;;0.70;;
67248;SDS011;63247;54.300;18.592;2023-10-08T14:38:54;2.27;;;0.40;;
67248;SDS011;63247;54.300;18.592;2023-10-08T14:41:38;2.33;;;0.40;;
67248;SDS011;63247;54.300;18.592;2023-10-08T14:44:22;1.83;;;0.47;;
67248;SDS011;63247;54.300;18.592;2023-10-08T14:46:49;2.37;;;0.50;;
67248;SDS011;63247;54.300;18.592;2023-10-08T14:49:15;2.22;;;0.47;;
67248;SDS011;63247;54.300;18.592;2023-10-08T14:51:41;5.68;;;0.40;;
67248;SDS011;63247;54.300;18.592;2023-10-08T14:54:08;2.08;;;0.35;;
67248;SDS011;63247;54.300;18.592;2023-10-08T14:56:36;2.83;;;0.50;;
67248;SDS011;63247;54.300;18.592;2023-10-08T14:59:04;3.88;;;0.50;;
67248;SDS011;63247;54.300;18.592;2023-10-08T15:01:29;2.83;;;0.40;;